Decoded Metar for PAPG (PETERSBURG in AK, USA) (IATA:PSG) | Meteo·Mobile Aviation Weather
aviador You're here:

PAPG Decoded Metar

PETERSBURG in AK, USA
Report Time2019-03-23 16:56:00
UTC Time2019-03-23 17:19:05
Flight Rules vfr VFR
Wind270° at 08 kt
W.Decomp.*RWY 23: 7.6 kt HW 2.6 kt RCW
W.Rank270° ranks 21
Current wind is above 270° avg. (4.3)
Visibility9999 m
Phenomena:Light Rain
Clouds:Broken 030 Hf
Overcast 055 Hf
Expected CloudBase > 400 ft AGL from Temp-Dew spread
Ceiling3,000 ft
Temp06°C (ISA -9)
Dew Point05°C (93% RH)
AAT2.0°C
QNH1018 hPa
Density Alt-1,076 ft
Elevation49 ft
Report Wrong Elevation
Raw Report
PAPG 231656Z 27008KT 10SM -RA BKN030 OVC055 06/05 A3005 RMK AO2
SLP181 P0000 T00610050=

Extra information for PAPG:More info

Metar Taf Metar & Taf Last 4 Metars F.Rules Stats Wind Profile Meteogram Temp Stats Airport Information Weather charts Add Link Nearby VenuesMetar ALERT Operation Metar Decoded Social comments

AIRNAV info for PAPG